createdAt,value
2018-12-12T00:00:04.242Z,55.60
2018-12-12T00:00:35.379Z,55.70
2018-12-12T00:01:06.467Z,55.70
2018-12-12T00:01:37.618Z,55.70
2018-12-12T00:02:08.719Z,55.70
2018-12-12T00:02:39.814Z,55.70
2018-12-12T00:03:10.906Z,55.60
2018-12-12T00:03:41.994Z,55.60
2018-12-12T00:04:13.123Z,55.60
2018-12-12T00:04:44.331Z,55.60
2018-12-12T00:05:15.464Z,55.60
2018-12-12T00:05:46.547Z,55.60
2018-12-12T00:06:17.718Z,55.70
2018-12-12T00:06:48.847Z,55.70
2018-12-12T00:07:19.939Z,55.70
2018-12-12T00:07:51.088Z,55.80
2018-12-12T00:08:22.263Z,55.70
2018-12-12T00:08:53.364Z,55.70
2018-12-12T00:09:24.456Z,55.70
2018-12-12T00:09:55.548Z,55.60
2018-12-12T00:10:26.643Z,55.60
2018-12-12T00:10:57.729Z,55.60
2018-12-12T00:11:28.815Z,55.60
2018-12-12T00:11:59.907Z,55.50
2018-12-12T00:12:31.004Z,56.00
2018-12-12T00:13:02.113Z,55.50
2018-12-12T00:13:33.212Z,55.50
2018-12-12T00:14:04.315Z,55.60
2018-12-12T00:14:35.408Z,55.50
2018-12-12T00:15:06.504Z,55.50
2018-12-12T00:15:37.609Z,55.50
2018-12-12T00:16:08.776Z,55.50
2018-12-12T00:16:39.857Z,55.50
2018-12-12T00:17:10.945Z,55.50
2018-12-12T00:17:42.025Z,55.50
2018-12-12T00:18:13.138Z,55.60
2018-12-12T00:18:44.230Z,55.50
2018-12-12T00:19:15.325Z,55.50
2018-12-12T00:19:46.425Z,55.50
2018-12-12T00:20:17.513Z,55.50
2018-12-12T00:20:48.622Z,55.50
2018-12-12T00:21:19.742Z,55.60
2018-12-12T00:21:50.889Z,55.50
2018-12-12T00:22:21.981Z,55.50
2018-12-12T00:22:53.074Z,55.60
2018-12-12T00:23:24.174Z,55.60
2018-12-12T00:23:55.262Z,55.50
2018-12-12T00:24:26.358Z,55.50
2018-12-12T00:24:57.459Z,55.50
2018-12-12T00:25:28.566Z,55.60
2018-12-12T00:25:59.658Z,55.50
2018-12-12T00:26:30.748Z,56.20
2018-12-12T00:27:01.843Z,56.20
2018-12-12T00:27:32.939Z,55.60
2018-12-12T00:28:04.030Z,55.60
2018-12-12T00:28:35.135Z,55.70
2018-12-12T00:29:06.237Z,55.80
2018-12-12T00:29:37.323Z,55.70
2018-12-12T00:30:08.421Z,55.70
2018-12-12T00:30:39.543Z,55.70
2018-12-12T00:31:10.660Z,55.70
2018-12-12T00:31:41.776Z,55.60
2018-12-12T00:32:12.872Z,55.70
2018-12-12T00:32:43.963Z,55.60
2018-12-12T00:33:15.088Z,55.60
2018-12-12T00:33:46.256Z,55.60
2018-12-12T00:34:17.404Z,55.60
2018-12-12T00:34:48.484Z,55.60
2018-12-12T00:35:19.577Z,55.60
2018-12-12T00:35:50.677Z,55.60
2018-12-12T00:36:21.765Z,55.60
2018-12-12T00:36:52.852Z,55.60
2018-12-12T00:37:23.945Z,55.60
2018-12-12T00:37:55.040Z,55.70
2018-12-12T00:38:26.144Z,55.60
2018-12-12T00:38:57.237Z,55.70
2018-12-12T00:39:28.355Z,55.70
2018-12-12T00:39:59.431Z,55.60
2018-12-12T00:40:30.538Z,55.70
2018-12-12T00:41:01.625Z,55.70
2018-12-12T00:41:32.726Z,55.60
2018-12-12T00:42:03.813Z,55.60
2018-12-12T00:42:34.919Z,55.70
2018-12-12T00:43:06.002Z,55.70
2018-12-12T00:43:37.122Z,55.60
2018-12-12T00:44:08.217Z,55.70
2018-12-12T00:44:39.303Z,55.90
2018-12-12T00:45:10.383Z,55.50
2018-12-12T00:45:41.545Z,55.50
2018-12-12T00:46:12.621Z,55.50
2018-12-12T00:46:43.735Z,55.50
2018-12-12T00:47:14.831Z,55.50
2018-12-12T00:47:45.946Z,55.50
2018-12-12T00:48:17.058Z,55.60
2018-12-12T00:48:48.155Z,55.60
2018-12-12T00:49:19.246Z,55.60
2018-12-12T00:49:50.330Z,55.60
2018-12-12T00:50:21.430Z,55.60
2018-12-12T00:50:52.539Z,55.60
2018-12-12T00:51:23.623Z,55.50
2018-12-12T00:51:54.716Z,55.60
2018-12-12T00:52:25.807Z,55.50
2018-12-12T00:52:56.907Z,55.50
2018-12-12T00:53:28.042Z,55.50
2018-12-12T00:53:59.171Z,55.50
2018-12-12T00:54:30.268Z,55.50
2018-12-12T00:55:01.356Z,55.50
2018-12-12T00:55:32.451Z,55.50
2018-12-12T00:56:03.542Z,55.50
2018-12-12T00:56:34.631Z,55.50
2018-12-12T00:57:05.767Z,55.60
2018-12-12T00:57:36.862Z,55.50
2018-12-12T00:58:07.968Z,55.50
2018-12-12T00:58:39.367Z,55.50
2018-12-12T00:59:10.471Z,55.50
2018-12-12T00:59:41.631Z,55.50
2018-12-12T01:00:12.721Z,55.50
2018-12-12T01:00:43.855Z,55.50
2018-12-12T01:01:14.968Z,55.50
2018-12-12T01:01:46.056Z,55.50
2018-12-12T01:02:17.172Z,55.50
2018-12-12T01:02:48.283Z,55.50
2018-12-12T01:03:19.518Z,55.60
2018-12-12T01:03:50.616Z,55.60
2018-12-12T01:04:21.712Z,55.60
2018-12-12T01:04:52.797Z,55.60
2018-12-12T01:05:23.893Z,55.60
2018-12-12T01:05:54.997Z,55.60
2018-12-12T01:06:26.095Z,55.60
2018-12-12T01:06:57.177Z,55.70
2018-12-12T01:07:28.369Z,55.60
2018-12-12T01:07:59.456Z,55.60
2018-12-12T01:08:30.642Z,55.70
2018-12-12T01:09:01.738Z,55.70
2018-12-12T01:09:32.827Z,55.60
2018-12-12T01:10:03.917Z,55.60
2018-12-12T01:10:35.011Z,55.60
2018-12-12T01:11:06.099Z,55.70
2018-12-12T01:11:37.190Z,55.70
2018-12-12T01:12:08.298Z,56.40
2018-12-12T01:12:39.406Z,55.70
2018-12-12T01:13:10.513Z,55.80
2018-12-12T01:13:41.635Z,55.80
2018-12-12T01:14:12.955Z,56.40
2018-12-12T01:14:44.187Z,56.60
2018-12-12T01:15:15.289Z,55.80
2018-12-12T01:15:46.375Z,55.80
2018-12-12T01:16:17.471Z,55.70
2018-12-12T01:16:48.559Z,55.80
2018-12-12T01:17:19.654Z,55.70
2018-12-12T01:17:50.742Z,55.70
2018-12-12T01:18:21.836Z,55.70
2018-12-12T01:18:52.923Z,55.70
2018-12-12T01:19:24.019Z,55.70
2018-12-12T01:19:55.111Z,55.70
2018-12-12T01:20:26.203Z,55.70
2018-12-12T01:20:57.293Z,55.70
2018-12-12T01:21:28.385Z,55.70
2018-12-12T01:21:59.495Z,55.70
2018-12-12T01:22:30.585Z,55.80
2018-12-12T01:23:01.675Z,55.80
2018-12-12T01:23:32.777Z,55.70
2018-12-12T01:24:03.879Z,55.80
2018-12-12T01:24:34.972Z,55.80
2018-12-12T01:25:06.068Z,55.70
2018-12-12T01:25:37.151Z,55.70
2018-12-12T01:26:08.248Z,55.70
2018-12-12T01:26:39.373Z,55.70
2018-12-12T01:27:10.457Z,55.70
2018-12-12T01:27:41.632Z,55.70
2018-12-12T01:28:12.721Z,55.70
2018-12-12T01:28:43.816Z,56.30
2018-12-12T01:29:14.925Z,55.70
2018-12-12T01:29:46.014Z,55.70
2018-12-12T01:30:17.181Z,55.70
2018-12-12T01:30:48.269Z,55.70
2018-12-12T01:31:19.417Z,55.50
2018-12-12T01:31:50.509Z,55.50
2018-12-12T01:32:21.613Z,55.50
2018-12-12T01:32:52.701Z,55.50
2018-12-12T01:33:23.782Z,55.60
2018-12-12T01:33:54.889Z,55.50
2018-12-12T01:34:25.978Z,55.50
2018-12-12T01:34:57.082Z,55.60
2018-12-12T01:35:28.198Z,55.60
2018-12-12T01:35:59.314Z,55.60
2018-12-12T01:36:30.441Z,55.60
2018-12-12T01:37:01.534Z,55.70
2018-12-12T01:37:32.646Z,55.70
2018-12-12T01:38:03.738Z,55.60
2018-12-12T01:38:34.959Z,55.60
2018-12-12T01:39:06.058Z,55.60
2018-12-12T01:39:37.147Z,55.70
2018-12-12T01:40:08.248Z,56.20
2018-12-12T01:40:39.343Z,55.60
2018-12-12T01:41:10.455Z,55.60
2018-12-12T01:41:41.546Z,55.60
2018-12-12T01:42:12.640Z,55.60
2018-12-12T01:42:43.728Z,55.60
2018-12-12T01:43:14.819Z,55.60
2018-12-12T01:43:45.916Z,55.60
2018-12-12T01:44:17.011Z,55.60
2018-12-12T01:44:48.100Z,55.60
2018-12-12T01:45:19.191Z,55.60
2018-12-12T01:45:50.328Z,55.60
2018-12-12T01:46:21.428Z,55.60
2018-12-12T01:46:52.520Z,55.70
2018-12-12T01:47:23.612Z,55.70
2018-12-12T01:47:54.734Z,55.80
2018-12-12T01:48:25.864Z,55.70
2018-12-12T01:48:56.965Z,55.70
2018-12-12T01:49:28.196Z,55.70
2018-12-12T01:49:59.320Z,55.70
2018-12-12T01:50:30.409Z,55.60
2018-12-12T01:51:01.506Z,55.60
2018-12-12T01:51:32.621Z,55.60
2018-12-12T01:52:03.710Z,55.60
2018-12-12T01:52:34.802Z,55.70
2018-12-12T01:53:05.896Z,55.90
2018-12-12T01:53:37.001Z,55.70
2018-12-12T01:54:08.105Z,55.70
2018-12-12T01:54:39.264Z,55.80
2018-12-12T01:55:10.341Z,55.80
2018-12-12T01:55:41.429Z,55.80
2018-12-12T01:56:12.523Z,55.80
2018-12-12T01:56:43.617Z,55.80
2018-12-12T01:57:14.718Z,55.70
2018-12-12T01:57:45.819Z,55.70
2018-12-12T01:58:16.974Z,55.80
2018-12-12T01:58:48.096Z,56.40
2018-12-12T01:59:19.219Z,55.80
2018-12-12T01:59:50.302Z,56.00
2018-12-12T02:00:21.467Z,55.70
2018-12-12T02:00:52.559Z,55.70
2018-12-12T02:01:23.648Z,55.70
2018-12-12T02:01:54.742Z,55.70
2018-12-12T02:02:25.883Z,55.80
2018-12-12T02:02:57.061Z,55.70
2018-12-12T02:03:28.191Z,55.70
2018-12-12T02:03:59.343Z,55.70
2018-12-12T02:04:30.435Z,55.70
2018-12-12T02:05:01.563Z,55.60
2018-12-12T02:05:32.663Z,55.70
2018-12-12T02:06:03.751Z,55.70
2018-12-12T02:06:34.851Z,55.70
2018-12-12T02:07:05.976Z,55.60
2018-12-12T02:07:38.962Z,55.70
2018-12-12T02:08:10.008Z,55.60
2018-12-12T02:08:41.047Z,55.60
2018-12-12T02:09:12.108Z,55.60
2018-12-12T02:09:43.159Z,55.60
2018-12-12T02:10:14.199Z,55.60
2018-12-12T02:10:45.243Z,55.70
2018-12-12T02:11:16.284Z,55.60
2018-12-12T02:11:47.355Z,55.60
2018-12-12T02:12:18.522Z,55.60
2018-12-12T02:12:49.558Z,55.60
2018-12-12T02:13:20.646Z,55.60
2018-12-12T02:13:51.683Z,55.70
2018-12-12T02:14:22.732Z,55.90
2018-12-12T02:14:53.779Z,55.70
2018-12-12T02:15:24.842Z,55.60
2018-12-12T02:15:55.917Z,55.60
2018-12-12T02:16:26.950Z,55.70
2018-12-12T02:16:58.025Z,55.70
2018-12-12T02:17:29.061Z,55.60
2018-12-12T02:18:00.170Z,55.70
2018-12-12T02:18:31.231Z,55.60
2018-12-12T02:19:02.285Z,55.60
2018-12-12T02:19:33.324Z,55.70
2018-12-12T02:20:04.363Z,55.60
2018-12-12T02:20:35.452Z,55.60
2018-12-12T02:21:43.105Z,55.70
2018-12-12T02:22:14.175Z,55.80
2018-12-12T02:22:45.224Z,55.80
2018-12-12T02:23:16.265Z,55.80
2018-12-12T02:23:47.308Z,55.80
2018-12-12T02:24:18.353Z,55.80
2018-12-12T02:24:49.488Z,55.80
2018-12-12T02:25:20.528Z,55.80
2018-12-12T02:25:51.583Z,55.80
2018-12-12T02:26:22.628Z,55.80
2018-12-12T02:26:53.667Z,55.80
2018-12-12T02:27:24.748Z,55.80
2018-12-12T02:27:55.793Z,55.80
2018-12-12T02:28:26.850Z,55.80
2018-12-12T02:28:57.876Z,55.80
2018-12-12T02:29:28.920Z,55.80
2018-12-12T02:29:59.959Z,55.80
2018-12-12T02:30:31.027Z,55.80
2018-12-12T02:31:02.052Z,55.80
2018-12-12T02:31:33.088Z,55.80
2018-12-12T02:32:04.128Z,55.80
2018-12-12T02:32:35.215Z,55.80
2018-12-12T02:33:06.257Z,55.70
2018-12-12T02:33:37.316Z,55.80
2018-12-12T02:34:08.363Z,55.80
2018-12-12T02:34:39.490Z,55.80
2018-12-12T02:35:10.636Z,55.80
2018-12-12T02:35:41.683Z,55.80
2018-12-12T02:36:12.795Z,55.80
2018-12-12T02:36:43.835Z,55.80
2018-12-12T02:37:14.871Z,55.80
2018-12-12T02:37:45.923Z,55.80
2018-12-12T02:38:16.968Z,56.10
2018-12-12T02:38:48.008Z,55.70
2018-12-12T02:39:19.052Z,55.70
2018-12-12T02:39:50.099Z,55.80
2018-12-12T02:40:21.149Z,55.80
2018-12-12T02:40:52.264Z,55.80
2018-12-12T02:41:23.321Z,55.80
2018-12-12T02:41:54.375Z,56.50
2018-12-12T02:42:25.492Z,55.80
2018-12-12T02:42:56.535Z,55.90
2018-12-12T02:43:27.591Z,55.90
2018-12-12T02:43:58.636Z,55.80
2018-12-12T02:44:29.665Z,55.80
2018-12-12T02:45:00.718Z,55.80
2018-12-12T02:45:31.758Z,55.80
2018-12-12T02:46:02.807Z,55.80
2018-12-12T02:46:33.854Z,55.80
2018-12-12T02:47:04.897Z,55.70
2018-12-12T02:47:35.939Z,55.70
2018-12-12T02:48:06.975Z,55.70
2018-12-12T02:48:38.058Z,55.70
2018-12-12T02:49:09.087Z,55.70
2018-12-12T02:49:40.147Z,55.70
2018-12-12T02:50:11.371Z,55.70
2018-12-12T02:50:42.379Z,55.70
2018-12-12T02:51:13.435Z,55.70
2018-12-12T02:51:44.578Z,55.60
2018-12-12T02:52:15.642Z,55.60
2018-12-12T02:52:46.676Z,55.60
2018-12-12T02:53:17.727Z,55.60
2018-12-12T02:53:48.807Z,55.70
2018-12-12T02:54:19.859Z,55.70
2018-12-12T02:54:50.944Z,55.60
2018-12-12T02:55:21.992Z,55.70
2018-12-12T02:55:53.033Z,55.60
2018-12-12T02:56:24.100Z,55.60
2018-12-12T02:56:55.228Z,55.70
2018-12-12T02:57:26.266Z,55.70
2018-12-12T02:57:57.318Z,55.70
2018-12-12T02:58:28.377Z,55.70
2018-12-12T02:58:59.426Z,55.60
2018-12-12T02:59:30.481Z,55.70
2018-12-12T03:00:01.525Z,55.60
2018-12-12T03:00:32.564Z,55.70
2018-12-12T03:01:03.612Z,55.70
2018-12-12T03:01:34.655Z,55.80
2018-12-12T03:02:05.711Z,55.80
2018-12-12T03:02:36.740Z,55.80
2018-12-12T03:03:07.786Z,55.80
2018-12-12T03:03:38.818Z,55.80
2018-12-12T03:04:09.865Z,55.80
2018-12-12T03:04:40.906Z,55.80
2018-12-12T03:05:12.031Z,55.80
2018-12-12T03:05:43.075Z,55.80
2018-12-12T03:06:14.142Z,55.80
2018-12-12T03:06:45.186Z,55.80
2018-12-12T03:07:16.220Z,55.90
2018-12-12T03:07:47.320Z,55.70
2018-12-12T03:08:18.339Z,55.80
2018-12-12T03:08:49.370Z,55.80
2018-12-12T03:09:20.427Z,55.80
2018-12-12T03:09:51.455Z,56.20
2018-12-12T03:10:22.536Z,55.80
2018-12-12T03:10:53.655Z,55.80
2018-12-12T03:11:24.695Z,55.80
2018-12-12T03:11:55.752Z,55.80
2018-12-12T03:12:26.812Z,55.80
2018-12-12T03:12:57.857Z,55.80
2018-12-12T03:13:28.896Z,55.80
2018-12-12T03:13:59.939Z,55.80
2018-12-12T03:14:30.976Z,55.80
2018-12-12T03:15:02.041Z,55.80
2018-12-12T03:15:33.088Z,55.80
2018-12-12T03:16:04.167Z,55.80
2018-12-12T03:16:35.203Z,55.80
2018-12-12T03:17:06.267Z,55.90
2018-12-12T03:17:37.413Z,55.90
2018-12-12T03:18:08.447Z,55.90
2018-12-12T03:18:39.487Z,55.80
2018-12-12T03:19:10.540Z,55.80
2018-12-12T03:19:41.593Z,55.90
2018-12-12T03:20:12.658Z,55.90
2018-12-12T03:20:43.699Z,55.90
2018-12-12T03:21:14.752Z,55.80
2018-12-12T03:21:45.784Z,55.90
2018-12-12T03:22:16.847Z,56.50
2018-12-12T03:22:47.929Z,55.90
2018-12-12T03:23:18.980Z,55.80
2018-12-12T03:23:50.035Z,55.80
2018-12-12T03:24:21.080Z,55.70
2018-12-12T03:24:52.122Z,55.70
2018-12-12T03:25:23.169Z,55.70
2018-12-12T03:25:54.205Z,55.70
2018-12-12T03:26:25.259Z,55.70
2018-12-12T03:26:56.288Z,55.70
2018-12-12T03:27:27.417Z,55.70
2018-12-12T03:27:58.480Z,55.80
2018-12-12T03:28:29.523Z,55.80
2018-12-12T03:29:00.587Z,55.80
2018-12-12T03:29:31.660Z,55.80
2018-12-12T03:30:02.712Z,55.80
2018-12-12T03:30:33.824Z,55.80
2018-12-12T03:31:04.859Z,55.70
2018-12-12T03:31:36.004Z,55.70
2018-12-12T03:32:07.049Z,55.70
2018-12-12T03:32:38.089Z,55.70
2018-12-12T03:33:09.128Z,55.80
2018-12-12T03:33:40.169Z,55.70
2018-12-12T03:34:11.215Z,55.70
2018-12-12T03:34:42.332Z,55.70
2018-12-12T03:35:13.434Z,55.70
2018-12-12T03:35:44.572Z,55.70
2018-12-12T03:36:15.604Z,55.60
2018-12-12T03:36:46.649Z,55.70
2018-12-12T03:37:17.684Z,55.70
2018-12-12T03:37:48.735Z,55.70
2018-12-12T03:38:19.787Z,55.70
2018-12-12T03:38:50.828Z,55.70
2018-12-12T03:39:21.867Z,55.70
2018-12-12T03:39:52.908Z,55.70
2018-12-12T03:40:23.952Z,55.80
2018-12-12T03:40:55.007Z,55.80
2018-12-12T03:41:26.060Z,55.80
2018-12-12T03:41:57.093Z,55.80
2018-12-12T03:42:28.212Z,55.90
2018-12-12T03:42:59.248Z,55.80
2018-12-12T03:43:30.358Z,55.80
2018-12-12T03:44:01.366Z,55.70
2018-12-12T03:44:32.501Z,55.80
2018-12-12T03:45:03.620Z,55.80
2018-12-12T03:45:34.660Z,55.80
2018-12-12T03:46:05.694Z,55.80
2018-12-12T03:46:36.734Z,55.90
2018-12-12T03:47:07.793Z,55.90
2018-12-12T03:47:38.830Z,56.00
2018-12-12T03:48:09.872Z,56.00
2018-12-12T03:48:40.911Z,56.00
2018-12-12T03:49:11.947Z,55.90
2018-12-12T03:49:43.017Z,55.90
2018-12-12T03:50:14.052Z,55.90
2018-12-12T03:50:45.093Z,55.90
2018-12-12T03:51:16.131Z,55.90
2018-12-12T03:51:47.168Z,55.90
2018-12-12T03:52:18.235Z,55.80
2018-12-12T03:52:49.270Z,55.90
2018-12-12T03:53:20.344Z,55.90
2018-12-12T03:53:51.387Z,55.80
2018-12-12T03:54:22.467Z,55.80
2018-12-12T03:54:53.515Z,55.80
2018-12-12T03:55:24.567Z,55.80
2018-12-12T03:55:55.609Z,55.80
2018-12-12T03:56:26.635Z,55.80
2018-12-12T03:56:57.675Z,55.90
2018-12-12T03:57:28.722Z,55.90
2018-12-12T03:57:59.883Z,55.90
2018-12-12T03:58:30.900Z,56.50
2018-12-12T03:59:01.967Z,55.90
2018-12-12T03:59:33.008Z,55.90
2018-12-12T04:00:04.070Z,55.90
2018-12-12T04:00:35.103Z,55.90
2018-12-12T04:01:06.145Z,55.80
2018-12-12T04:01:37.180Z,55.80
2018-12-12T04:02:08.220Z,55.80
2018-12-12T04:02:39.277Z,55.80
2018-12-12T04:03:10.384Z,55.90
2018-12-12T04:03:41.492Z,55.80
2018-12-12T04:04:12.540Z,55.80
2018-12-12T04:04:43.620Z,55.70
2018-12-12T04:05:14.748Z,55.80
2018-12-12T04:05:45.787Z,56.30
2018-12-12T04:06:16.852Z,55.80
2018-12-12T04:06:47.894Z,55.70
2018-12-12T04:07:18.939Z,55.70
2018-12-12T04:07:49.984Z,55.70
2018-12-12T04:08:21.025Z,55.80
2018-12-12T04:08:52.064Z,55.80
2018-12-12T04:09:23.262Z,55.80
2018-12-12T04:09:54.356Z,55.80
2018-12-12T04:10:25.467Z,55.80
2018-12-12T04:10:56.535Z,55.80
2018-12-12T04:11:27.556Z,55.80
2018-12-12T04:11:58.671Z,55.80
2018-12-12T04:12:29.712Z,55.70
2018-12-12T04:13:00.763Z,55.70
2018-12-12T04:13:31.815Z,55.70
2018-12-12T04:14:02.880Z,55.80
2018-12-12T04:14:33.928Z,55.70
2018-12-12T04:15:04.985Z,55.70
2018-12-12T04:15:36.035Z,55.70
2018-12-12T04:16:07.153Z,55.80
2018-12-12T04:16:38.284Z,55.80
2018-12-12T04:17:09.408Z,56.00
2018-12-12T04:17:40.452Z,55.80
2018-12-12T04:18:11.495Z,55.80
2018-12-12T04:18:42.535Z,55.80
2018-12-12T04:19:13.577Z,55.80
2018-12-12T04:19:44.676Z,55.80
2018-12-12T04:20:15.743Z,55.80
2018-12-12T04:20:46.855Z,55.80
2018-12-12T04:21:17.892Z,55.80
2018-12-12T04:21:48.969Z,55.80
2018-12-12T04:22:20.123Z,55.80
2018-12-12T04:22:51.151Z,55.90
2018-12-12T04:23:22.326Z,55.90
2018-12-12T04:23:53.393Z,55.90
2018-12-12T04:24:24.432Z,55.90
2018-12-12T04:24:55.484Z,55.90
2018-12-12T04:25:26.523Z,55.90
2018-12-12T04:25:57.585Z,55.90
2018-12-12T04:26:28.630Z,55.90
2018-12-12T04:26:59.692Z,55.90
2018-12-12T04:27:30.739Z,55.80
2018-12-12T04:28:01.772Z,55.80
2018-12-12T04:28:32.889Z,55.90
2018-12-12T04:29:03.927Z,55.90
2018-12-12T04:29:34.968Z,56.00
2018-12-12T04:30:06.020Z,56.00
2018-12-12T04:30:37.059Z,56.00
2018-12-12T04:31:08.095Z,56.00
2018-12-12T04:31:39.132Z,56.00
2018-12-12T04:32:10.196Z,56.00
2018-12-12T04:32:41.236Z,56.00
2018-12-12T04:33:12.281Z,56.00
2018-12-12T04:33:43.331Z,56.00
2018-12-12T04:34:14.444Z,56.00
2018-12-12T04:34:45.492Z,56.00
2018-12-12T04:35:16.547Z,55.90
2018-12-12T04:35:47.627Z,55.90
2018-12-12T04:36:18.673Z,55.90
2018-12-12T04:36:49.735Z,55.90
2018-12-12T04:37:20.777Z,55.90
2018-12-12T04:37:51.836Z,55.90
2018-12-12T04:38:22.903Z,56.40
2018-12-12T04:38:53.946Z,55.90
2018-12-12T04:39:24.999Z,55.90
2018-12-12T04:39:56.049Z,55.90
2018-12-12T04:40:27.111Z,55.90
2018-12-12T04:40:58.150Z,55.90
2018-12-12T04:41:29.218Z,55.90
2018-12-12T04:42:00.361Z,55.90
2018-12-12T04:42:31.511Z,55.90
2018-12-12T04:43:02.556Z,55.90
2018-12-12T04:43:33.600Z,55.90
2018-12-12T04:44:04.701Z,55.80
2018-12-12T04:44:35.751Z,55.90
2018-12-12T04:45:06.803Z,55.90
2018-12-12T04:45:37.851Z,55.80
2018-12-12T04:46:08.896Z,55.90
2018-12-12T04:46:39.952Z,55.90
2018-12-12T04:47:11.069Z,55.90
2018-12-12T04:47:42.110Z,55.80
2018-12-12T04:48:13.224Z,55.80
2018-12-12T04:48:44.302Z,55.80
2018-12-12T04:49:15.341Z,55.90
2018-12-12T04:49:46.406Z,55.90
2018-12-12T04:50:17.440Z,55.90
2018-12-12T04:50:48.484Z,55.90
2018-12-12T04:51:19.529Z,55.80
2018-12-12T04:51:50.592Z,55.90
2018-12-12T04:52:21.671Z,55.90
2018-12-12T04:52:52.711Z,55.90
2018-12-12T04:53:23.767Z,55.90
2018-12-12T04:53:54.803Z,55.90
2018-12-12T04:54:25.872Z,56.00
2018-12-12T04:54:56.887Z,56.00
2018-12-12T04:55:28.003Z,56.00
2018-12-12T04:55:59.015Z,56.00
2018-12-12T04:56:30.063Z,56.00
2018-12-12T04:57:01.118Z,56.00
2018-12-12T04:57:32.155Z,55.90
2018-12-12T04:58:04.456Z,55.90
2018-12-12T04:58:35.491Z,55.90
2018-12-12T04:59:06.536Z,56.00
2018-12-12T04:59:37.584Z,55.90
2018-12-12T05:00:08.645Z,55.90
2018-12-12T05:00:39.715Z,55.90
2018-12-12T05:01:10.773Z,56.00
2018-12-12T05:01:41.887Z,55.90
2018-12-12T05:02:12.960Z,55.90
2018-12-12T05:02:44.026Z,55.90
2018-12-12T05:03:15.064Z,56.00
2018-12-12T05:03:46.125Z,55.90
2018-12-12T05:04:17.246Z,55.90
2018-12-12T05:04:48.284Z,55.90
2018-12-12T05:05:19.327Z,55.90
2018-12-12T05:05:50.375Z,56.00
2018-12-12T05:06:21.424Z,56.00
2018-12-12T05:06:52.465Z,55.90
2018-12-12T05:07:24.474Z,56.00
2018-12-12T05:07:55.738Z,56.00
2018-12-12T05:08:26.769Z,56.00
2018-12-12T05:08:57.819Z,56.00
2018-12-12T05:09:28.865Z,56.00
2018-12-12T05:09:59.912Z,56.00
2018-12-12T05:10:30.979Z,56.40
2018-12-12T05:11:02.028Z,56.00
2018-12-12T05:11:33.069Z,56.00
2018-12-12T05:12:04.164Z,56.00
2018-12-12T05:12:35.207Z,56.00
2018-12-12T05:13:06.247Z,56.00
2018-12-12T05:13:37.305Z,56.00
2018-12-12T05:14:08.348Z,56.00
2018-12-12T05:14:39.385Z,56.10
2018-12-12T05:15:10.425Z,56.00
2018-12-12T05:15:41.478Z,56.00
2018-12-12T05:16:12.534Z,56.00
2018-12-12T05:16:43.573Z,56.00
2018-12-12T05:17:14.618Z,56.00
2018-12-12T05:17:45.679Z,56.00
2018-12-12T05:18:16.727Z,56.00
2018-12-12T05:18:47.781Z,56.00
2018-12-12T05:19:18.823Z,56.00
2018-12-12T05:19:49.867Z,56.00
2018-12-12T05:20:20.904Z,55.90
2018-12-12T05:20:51.962Z,55.90
2018-12-12T05:21:23.011Z,55.90
2018-12-12T05:21:54.077Z,55.90
2018-12-12T05:22:25.154Z,55.90
2018-12-12T05:22:56.197Z,55.90
2018-12-12T05:23:27.222Z,55.90
2018-12-12T05:23:58.291Z,55.90
2018-12-12T05:24:29.331Z,56.00
2018-12-12T05:25:00.394Z,55.90
2018-12-12T05:25:31.478Z,55.90
2018-12-12T05:26:02.539Z,55.90
2018-12-12T05:26:33.588Z,55.90
2018-12-12T05:27:04.633Z,55.90
2018-12-12T05:27:35.727Z,55.90
2018-12-12T05:28:06.770Z,55.90
2018-12-12T05:28:37.847Z,55.90
2018-12-12T05:29:08.918Z,55.90
2018-12-12T05:29:39.986Z,55.90
2018-12-12T05:30:11.040Z,55.90
2018-12-12T05:30:42.091Z,55.90
2018-12-12T05:31:13.139Z,55.90
2018-12-12T05:31:44.175Z,55.90
2018-12-12T05:32:15.220Z,55.90
2018-12-12T05:32:46.280Z,56.00
2018-12-12T05:33:17.403Z,55.90
2018-12-12T05:33:48.466Z,55.90
2018-12-12T05:34:19.581Z,56.00
2018-12-12T05:34:50.691Z,55.90
2018-12-12T05:35:22.463Z,56.00
2018-12-12T05:35:53.691Z,55.90
2018-12-12T05:36:24.735Z,55.90
2018-12-12T05:36:55.792Z,56.00
2018-12-12T05:37:26.932Z,56.00
2018-12-12T05:37:57.972Z,55.80
2018-12-12T05:38:29.013Z,56.10
2018-12-12T05:39:00.057Z,56.10
2018-12-12T05:39:31.227Z,56.10
2018-12-12T05:40:02.281Z,56.00
2018-12-12T05:40:33.346Z,56.10
2018-12-12T05:41:04.476Z,56.10
2018-12-12T05:41:35.547Z,56.00
2018-12-12T05:42:06.599Z,56.00
2018-12-12T05:42:37.668Z,56.00
2018-12-12T05:43:08.719Z,56.00
2018-12-12T05:43:39.862Z,56.00
2018-12-12T05:44:10.898Z,56.00
2018-12-12T05:44:41.948Z,56.00
2018-12-12T05:45:12.985Z,56.00
2018-12-12T05:45:44.513Z,56.00
2018-12-12T05:46:15.571Z,56.00
2018-12-12T05:46:46.648Z,56.00
2018-12-12T05:47:17.711Z,56.00
2018-12-12T05:47:48.799Z,56.00
2018-12-12T05:48:19.856Z,56.00
2018-12-12T05:48:50.910Z,56.00
2018-12-12T05:49:21.948Z,56.00
2018-12-12T05:49:52.987Z,56.00
2018-12-12T05:50:24.043Z,56.00
2018-12-12T05:50:55.092Z,56.00
2018-12-12T05:51:26.136Z,56.10
2018-12-12T05:51:57.175Z,56.00
2018-12-12T05:52:28.240Z,56.00
2018-12-12T05:52:59.303Z,56.00
2018-12-12T05:53:30.356Z,56.10
2018-12-12T05:54:01.407Z,56.10
2018-12-12T05:54:32.511Z,56.10
2018-12-12T05:55:03.556Z,56.10
2018-12-12T05:55:34.592Z,56.00
2018-12-12T05:56:05.652Z,56.00
2018-12-12T05:56:36.721Z,56.00
2018-12-12T05:57:07.755Z,56.00
2018-12-12T05:57:38.817Z,56.60
2018-12-12T05:58:09.949Z,56.00
2018-12-12T05:58:40.993Z,56.00
2018-12-12T05:59:12.019Z,56.00
2018-12-12T05:59:43.066Z,56.00
2018-12-12T06:00:14.134Z,56.00
2018-12-12T06:00:45.147Z,56.00
2018-12-12T06:01:16.187Z,56.00
2018-12-12T06:01:47.271Z,56.10
2018-12-12T06:02:18.381Z,56.00
2018-12-12T06:02:49.431Z,56.00
2018-12-12T06:03:20.483Z,56.00
2018-12-12T06:03:51.528Z,56.00
2018-12-12T06:04:22.588Z,56.00
2018-12-12T06:04:53.629Z,56.00
2018-12-12T06:05:24.680Z,56.00
2018-12-12T06:05:55.723Z,56.00
2018-12-12T06:06:26.770Z,55.90
2018-12-12T06:06:57.804Z,56.00
2018-12-12T06:07:28.894Z,55.90
2018-12-12T06:07:59.958Z,55.90
2018-12-12T06:08:31.140Z,55.90
2018-12-12T06:09:02.188Z,55.90
2018-12-12T06:09:33.350Z,56.00
2018-12-12T06:10:04.392Z,56.00
2018-12-12T06:10:35.439Z,56.00
2018-12-12T06:11:06.500Z,56.00
2018-12-12T06:11:38.840Z,55.90
2018-12-12T06:12:10.059Z,55.90
2018-12-12T06:12:41.294Z,56.00
2018-12-12T06:13:12.309Z,56.00
2018-12-12T06:13:43.363Z,56.00
2018-12-12T06:14:14.407Z,56.00
2018-12-12T06:14:45.451Z,56.00
2018-12-12T06:15:16.563Z,56.00
2018-12-12T06:15:47.603Z,56.10
2018-12-12T06:16:18.669Z,56.00
2018-12-12T06:16:49.736Z,56.00
2018-12-12T06:17:20.768Z,56.00
2018-12-12T06:17:51.814Z,56.00
2018-12-12T06:18:22.855Z,56.00
2018-12-12T06:18:53.912Z,56.00
2018-12-12T06:19:24.961Z,56.00
2018-12-12T06:19:56.012Z,56.00
2018-12-12T06:20:27.051Z,55.90
2018-12-12T06:20:58.091Z,55.90
2018-12-12T06:21:29.151Z,55.90
2018-12-12T06:22:00.195Z,55.90
2018-12-12T06:22:37.361Z,56.00
2018-12-12T06:23:04.272Z,55.90
2018-12-12T06:23:35.328Z,55.90
2018-12-12T06:24:06.367Z,56.00
2018-12-12T06:24:37.407Z,56.00
2018-12-12T06:25:08.448Z,56.00
2018-12-12T06:25:39.488Z,56.10
2018-12-12T06:26:10.539Z,56.00
2018-12-12T06:26:41.577Z,56.00
2018-12-12T06:27:12.636Z,56.00
2018-12-12T06:27:43.684Z,56.00
2018-12-12T06:28:14.761Z,56.00
2018-12-12T06:28:45.820Z,56.00
2018-12-12T06:29:16.865Z,56.00
2018-12-12T06:29:47.904Z,56.00
2018-12-12T06:30:18.947Z,56.00
2018-12-12T06:30:49.983Z,56.00
2018-12-12T06:31:21.042Z,56.00
2018-12-12T06:31:52.067Z,56.00
2018-12-12T06:32:23.108Z,56.10
2018-12-12T06:32:54.151Z,56.00
2018-12-12T06:33:25.204Z,56.00
2018-12-12T06:33:56.248Z,56.00
2018-12-12T06:34:27.288Z,56.00
2018-12-12T06:34:58.331Z,56.10
2018-12-12T06:35:29.377Z,56.10
2018-12-12T06:36:00.443Z,56.10
2018-12-12T06:36:31.487Z,56.10
2018-12-12T06:37:02.552Z,56.10
2018-12-12T06:37:33.595Z,56.10
2018-12-12T06:38:04.652Z,56.00
2018-12-12T06:38:35.707Z,56.00
2018-12-12T06:39:06.760Z,56.00
2018-12-12T06:39:37.799Z,56.10
2018-12-12T06:40:08.865Z,56.00
2018-12-12T06:40:40.050Z,56.00